Latest Coastal Weather Observations for Albany Airport

IDW60701

Issued at 1:22 pm WST Monday 6 July 2015 (issued every 10 minutes, with the page automatically refreshed every 10 minutes)

About coastal observations | Map of coastal stations | Coastal observations for WA | Marine services | Other Formats
Station Details ID: 009999 Name: ALBANY AIRPORT Lat: -34.94 Lon: 117.82 Height: 68.4 m
Data from the previous 72 hours. | See also: Recent months at Albany Airport
Date/Time
WST
Temp

°C
Wind Pressure Rain
since 9am
mm
Weather Cloud Vis
km
Sea
Height
m
Swell
Dir
 
Speed
knots
Gust
knots
hPa Trend Height
m
Period
s
Dir
06/01:00pm 18.1 NNW 13 19 1018.3 - 0.0 - Mostly clear 10 - - - -
06/12:30pm 17.9 NNW 10 13 1018.7 - 0.0 - Mostly clear 10 - - - -
06/12:00pm 17.6 NNW 11 14 1019.5 F 0.0 Fine Mostly clear 30 - - - -
06/11:30am 17.1 N 11 14 1019.7 - 0.0 - Mostly clear 10 - - - -
06/10:30am 16.0 NNW 11 14 1020.5 - 0.0 - Mostly clear 10 - - - -
06/09:30am 13.5 NNW 9 13 1020.7 - 0.0 - Mostly clear 10 - - - -
06/08:30am 10.5 NNW 7 10 1020.7 - 0.0 - Mostly clear 10 - - - -
06/08:00am 9.8 NW 8 11 1020.4 - 0.0 - Mostly clear 10 - - - -
06/07:30am 9.0 NNW 6 8 1020.2 - 0.0 - Mostly clear 10 - - - -
06/07:00am 8.9 NNW 7 8 1020.2 - 0.0 - Mostly clear 10 - - - -
06/06:30am 8.9 NNW 7 8 1020.2 - 0.0 - Mostly clear 10 - - - -
06/06:00am 9.2 NNW 7 9 1020.3 R 0.0 Fine Mostly clear 30 - - - -
06/05:30am 7.3 NW 4 5 1019.9 - 0.0 - - 10 - - - -
06/05:00am 8.1 NW 6 8 1019.9 - 0.0 - Partly cloudy 10 - - - -
06/04:30am 7.6 NNW 5 8 1019.8 - 0.0 - Partly cloudy 10 - - - -
06/04:00am 6.8 N 4 5 1019.8 - 0.0 - - 10 - - - -
06/03:30am 8.0 NW 7 8 1019.8 - 0.0 - - 10 - - - -
06/03:00am 7.7 NW 7 8 1020.1 - 0.0 - - 10 - - - -
06/02:30am 8.3 NW 7 7 1019.9 - 0.0 - - 10 - - - -
06/02:00am 8.8 WNW 6 7 1019.9 - 0.0 - Partly cloudy 10 - - - -
06/01:30am 8.8 WNW 5 6 1020.0 - 0.0 - Partly cloudy 10 - - - -
06/01:00am 9.2 NW 5 6 1020.1 - 0.0 - Partly cloudy 10 - - - -
06/12:30am 9.9 NW 6 7 1020.1 - 0.0 - Partly cloudy 10 - - - -
06/12:00am 10.9 NW 6 7 1020.4 - 0.0 - Mostly cloudy 10 - - - -
 
Date/Time
WST
Temp

°C
Wind Pressure Rain
since 9am
mm
Weather Cloud Vis
km
Sea
Height
m
Swell
Dir
 
Speed
knots
Gust
knots
hPa Trend Height
m
Period
s
Dir
05/11:30pm 10.1 NNW 6 7 1020.3 - 0.0 - Cloudy 10 - - - -
05/11:00pm 8.8 NNW 5 6 1020.4 - 0.0 - Partly cloudy 10 - - - -
05/10:30pm 8.8 NW 6 6 1020.4 - 0.0 - - 10 - - - -
05/10:00pm 9.0 NNW 6 7 1020.4 - 0.0 - - 10 - - - -
05/09:30pm 9.6 NW 7 8 1020.5 - 0.0 - Partly cloudy 10 - - - -
05/09:00pm 10.5 NW 5 5 1020.8 - 0.0 - Mostly clear 10 - - - -
05/08:30pm 10.7 NNW 4 5 1020.6 - 0.0 - Partly cloudy 10 - - - -
05/08:00pm 11.7 NW 5 6 1020.7 - 0.0 - Cloudy 10 - - - -
05/07:30pm 11.7 NW 5 6 1020.6 - 0.0 - Partly cloudy 10 - - - -
05/07:00pm 12.5 NW 5 5 1020.4 - 0.0 - Cloudy 10 - - - -
05/06:30pm 12.8 W 4 5 1020.3 - 0.0 - Cloudy 10 - - - -
05/06:00pm 13.0 WNW 5 6 1020.4 - 0.0 - Cloudy 10 - - - -
05/05:30pm 13.0 WNW 4 5 1019.9 - 0.0 - Mostly clear 10 - - - -
05/05:00pm 14.3 WSW 5 7 1019.6 - 0.0 - Mostly clear 10 - - - -
05/04:30pm 15.6 WSW 5 7 1019.5 - 0.0 - Mostly clear 10 - - - -
05/04:00pm 15.8 WSW 6 7 1019.4 - 0.0 - Mostly clear 10 - - - -
05/03:30pm 16.6 WNW 9 13 1019.1 - 0.0 - Mostly clear 10 - - - -
05/03:00pm 17.0 W 7 9 1019.2 R 0.0 Fine Partly cloudy 35 - - - -
05/02:30pm 17.4 NW 9 11 1018.9 - 0.0 - Mostly clear 10 - - - -
05/02:00pm 16.8 WNW 9 12 1018.9 - 0.0 - Mostly clear 10 - - - -
05/01:30pm 16.7 WNW 8 11 1019.1 - 0.0 - Mostly clear 10 - - - -
05/01:00pm 17.5 W 10 13 1019.3 - 0.0 - Mostly clear 10 - - - -
05/12:30pm 17.0 WNW 8 11 1019.5 - 0.0 - Mostly clear 10 - - - -
05/12:00pm 16.2 WNW 7 10 1020.1 R 0.0 Fine Partly cloudy 30 - - - -
05/11:30am 16.3 WNW 9 12 1020.3 - 0.0 - Partly cloudy 10 - - - -
05/11:00am 15.7 NW 8 10 1020.6 - 0.0 - Mostly clear 10 - - - -
05/10:30am 15.0 WNW 6 10 1020.9 - 0.0 - Mostly clear 10 - - - -
05/10:00am 13.7 WNW 7 8 1021.1 - 0.0 - Mostly clear 10 - - - -
05/09:30am 12.7 WNW 7 9 1020.7 - 0.0 - Mostly clear 10 - - - -
05/09:00am 12.5 WNW 8 10 1020.6 F 0.4 Fine Mostly cloudy 30 - - - -
05/08:30am 11.7 WNW 8 10 1020.4 - 0.4 - Mostly clear 10 - - - -
05/08:00am 10.0 WNW 8 9 1020.4 - 0.4 - Mostly clear 10 - - - -
05/07:30am 9.4 NW 7 9 1020.1 - 0.4 - Mostly clear 10 - - - -
05/07:00am 8.9 NW 8 9 1019.9 - 0.4 - Mostly clear 10 - - - -
05/06:30am 8.7 NW 9 10 1019.6 - 0.4 Shallow fog Mostly clear 10 - - - -
05/06:00am 8.3 NW 7 8 1019.5 R 0.4 Shallow fog Mostly clear 20 - - - -
05/05:30am 8.1 NW 5 6 1019.1 - 0.4 - - 6 - - - -
05/05:28am 8.0 NW 5 6 1019.1 - 0.4 - - 6 - - - -
05/05:25am 8.0 NW 6 6 1019.0 - 0.4 - - 7 - - - -
05/05:07am 8.1 NW 6 7 1019.1 - 0.4 - - 6 - - - -
05/05:00am 8.5 WNW 6 7 1019.1 - 0.4 - - 10 - - - -
05/04:30am 9.1 WNW 6 7 1019.0 - 0.4 - - 10 - - - -
05/04:00am 9.6 WNW 7 8 1019.0 - 0.4 - Partly cloudy 10 - - - -
05/03:55am 9.5 WNW 7 8 1019.0 - 0.4 - Partly cloudy 10 - - - -
05/03:30am 8.8 NW 6 6 1019.0 - 0.4 - - 2 - - - -
05/03:00am 9.3 WNW 7 7 1019.2 - 0.4 - - 3 - - - -
05/02:32am 9.3 WNW 7 7 1019.1 - 0.2 - - 6 - - - -
05/02:30am 9.4 WNW 7 8 1019.0 - 0.2 - - 10 - - - -
05/02:00am 10.8 WNW 7 8 1018.9 - 0.2 - Partly cloudy 10 - - - -
05/01:30am 10.5 WNW 7 7 1018.9 - 0.2 - Partly cloudy 10 - - - -
05/01:00am 11.4 WNW 7 8 1018.8 - 0.2 - Partly cloudy 10 - - - -
05/12:30am 12.1 WNW 7 11 1018.8 - 0.2 - Partly cloudy 10 - - - -
05/12:01am 12.3 WNW 8 11 1018.8 - 0.2 - Partly cloudy 10 - - - -
05/12:00am 12.3 WNW 8 11 1019.0 - 0.2 - Cloudy 10 - - - -
 
Date/Time
WST
Temp

°C
Wind Pressure Rain
since 9am
mm
Weather Cloud Vis
km
Sea
Height
m
Swell
Dir
 
Speed
knots
Gust
knots
hPa Trend Height
m
Period
s
Dir
04/11:30pm 12.5 W 7 9 1018.7 - 0.2 - Partly cloudy 9 - - - -
04/11:23pm 12.6 W 7 10 1018.8 - 0.2 - Partly cloudy 10 - - - -
04/11:05pm 12.9 W 11 16 1018.6 - 0.0 - Cloudy 6 - - - -
04/11:00pm 13.2 W 12 17 1018.6 - 0.0 - Cloudy 10 - - - -
04/10:45pm 12.9 W 8 14 1018.5 - 0.0 - Partly cloudy 10 - - - -
04/10:30pm 13.1 W 9 11 1018.3 - 0.0 - Partly cloudy 5 - - - -
04/10:27pm 13.2 WNW 9 12 1018.3 - 0.0 - Partly cloudy 6 - - - -
04/10:00pm 14.1 WNW 11 15 1018.0 - 0.0 - Partly cloudy 10 - - - -
04/09:30pm 13.8 NW 13 16 1017.9 - 0.0 - Partly cloudy 10 - - - -
04/09:00pm 13.8 NW 11 14 1018.0 - 0.0 - Partly cloudy 10 - - - -
04/08:30pm 13.0 NW 10 13 1017.8 - 0.0 - - 10 - - - -
04/08:00pm 13.3 NW 11 13 1018.0 - 0.0 - - 10 - - - -
04/07:30pm 12.4 WNW 8 10 1018.1 - 0.0 - - 10 - - - -
04/07:00pm 13.2 WNW 9 11 1018.1 - 0.0 - Partly cloudy 10 - - - -
04/06:30pm 12.5 WNW 8 9 1018.0 - 0.0 - - 10 - - - -
04/06:00pm 14.7 WNW 9 12 1018.2 - 0.0 - Mostly clear 10 - - - -
04/05:30pm 15.5 W 9 13 1017.9 - 0.0 - Partly cloudy 10 - - - -
04/05:00pm 16.2 W 9 13 1017.9 - 0.0 - Mostly clear 10 - - - -
04/04:30pm 16.4 W 9 11 1018.0 - 0.0 - Partly cloudy 10 - - - -
04/04:00pm 17.3 W 8 11 1018.0 - 0.0 - Partly cloudy 10 - - - -
04/03:30pm 17.1 WNW 7 11 1018.0 - 0.0 - Partly cloudy 10 - - - -
04/03:00pm 17.5 W 9 11 1018.2 F 0.0 Fine Mostly cloudy 30 - - - -
04/02:30pm 17.5 WNW 11 14 1018.0 - 0.0 - Partly cloudy 10 - - - -
04/02:00pm 18.4 W 12 15 1018.2 - 0.0 - Partly cloudy 10 - - - -
04/01:30pm 18.1 WNW 11 15 1018.4 - 0.0 - Partly cloudy 10 - - - -
04/01:00pm 17.2 W 13 17 1018.7 - 0.0 - Partly cloudy 10 - - - -
04/12:30pm 17.6 WNW 13 18 1018.8 - 0.0 - Mostly clear 10 - - - -
04/12:00pm 18.3 NW 13 18 1019.3 F 0.0 Fine Partly cloudy 30 - - - -
04/11:30am 17.9 NW 12 16 1019.6 - 0.0 - Mostly clear 10 - - - -
04/11:00am 17.6 NW 11 15 1020.1 - 0.0 - Mostly clear 10 - - - -
04/10:30am 16.8 NW 9 13 1020.6 - 0.0 - Mostly clear 10 - - - -
04/10:00am 15.2 WNW 11 15 1020.9 - 0.0 - Mostly clear 10 - - - -
04/09:30am 14.7 NW 8 11 1020.7 - 0.0 - Mostly clear 10 - - - -
04/09:00am 14.1 NW 7 9 1020.7 F 0.8 Fine Mostly cloudy 30 - - - -
04/08:30am 13.3 NNW 6 8 1020.5 - 0.8 - Mostly clear 10 - - - -
04/08:00am 12.7 WNW 5 6 1020.5 - 0.8 - Mostly clear 10 - - - -
04/07:30am 12.6 NNW 5 7 1020.5 - 0.8 - Mostly clear 10 - - - -
04/07:00am 12.7 N 6 8 1020.2 - 0.8 - Mostly clear 10 - - - -
04/06:30am 12.4 WNW 4 5 1020.2 - 0.8 - Mostly clear 10 - - - -
04/06:00am 12.5 NW 5 7 1020.4 F 0.8 Fine Mostly cloudy 25 - - - -
04/05:30am 12.6 NW 6 8 1020.3 - 0.8 - Cloudy 10 - - - -
04/05:00am 12.5 NNW 8 10 1020.3 - 0.8 - Partly cloudy 10 - - - -
04/04:30am 12.5 NNW 7 9 1020.3 - 0.8 - Partly cloudy 10 - - - -
04/04:00am 12.4 NNW 8 10 1020.4 - 0.6 - Partly cloudy 10 - - - -
04/03:30am 12.6 NW 7 9 1020.7 - 0.6 - Partly cloudy 10 - - - -
04/03:00am 12.3 NW 6 7 1021.2 - 0.6 - Cloudy 10 - - - -
04/02:31am 12.6 NW 8 10 1021.3 - 0.6 - Partly cloudy 10 - - - -
04/02:30am 12.6 NW 8 9 1021.3 - 0.6 - Partly cloudy 10 - - - -
04/02:00am 12.4 WNW 10 13 1021.4 - 0.6 - Cloudy 1 - - - -
04/01:30am 12.5 WNW 9 12 1021.4 - 0.6 - Cloudy 0.6 - - - -
04/01:00am 12.6 WNW 8 11 1021.3 - 0.6 - Cloudy 3 - - - -
04/12:30am 12.6 WNW 8 11 1021.4 - 0.6 - Partly cloudy 4 - - - -
04/12:27am 12.5 WNW 8 10 1021.4 - 0.6 - Partly cloudy 6 - - - -
04/12:19am 12.3 WNW 8 9 1021.4 - 0.6 - Partly cloudy 10 - - - -
04/12:00am 11.3 NW 7 8 1021.6 - 0.6 - - 0.5 - - - -
 
Date/Time
WST
Temp

°C
Wind Pressure Rain
since 9am
mm
Weather Cloud Vis
km
Sea
Height
m
Swell
Dir
 
Speed
knots
Gust
knots
hPa Trend Height
m
Period
s
Dir
03/11:30pm 11.5 NW 7 7 1021.5 - 0.6 - Partly cloudy 1 - - - -
03/11:00pm 12.3 W 3 4 1021.6 - 0.6 - Partly cloudy 0.6 - - - -
03/10:46pm 12.8 WSW 3 4 1021.7 - 0.6 - Partly cloudy 5 - - - -
03/10:30pm 13.3 WSW 5 5 1021.6 - 0.6 - Partly cloudy 10 - - - -
03/10:00pm 13.1 WNW 5 6 1021.6 - 0.6 - Partly cloudy 10 - - - -
03/09:30pm 14.1 NW 7 8 1021.9 - 0.6 - Partly cloudy 10 - - - -
03/09:22pm 14.1 NW 7 8 1021.8 - 0.6 - Partly cloudy 10 - - - -
03/09:00pm 12.9 NW 5 6 1021.9 - 0.6 - Partly cloudy 3 - - - -
03/08:30pm 12.9 NW 6 7 1021.9 - 0.6 - Partly cloudy 2 - - - -
03/08:26pm 12.9 NW 6 6 1021.9 - 0.6 - Partly cloudy 6 - - - -
03/08:00pm 14.4 NW 6 7 1021.9 - 0.6 - Partly cloudy 10 - - - -
03/07:30pm 14.5 WNW 5 7 1022.0 - 0.6 - Partly cloudy 10 - - - -
03/07:00pm 14.8 W 6 8 1022.0 - 0.6 - Partly cloudy 10 - - - -
03/06:30pm 15.1 W 6 7 1021.7 - 0.6 - Partly cloudy 10 - - - -
03/06:00pm 15.4 W 7 9 1021.6 - 0.6 - Cloudy 10 - - - -
03/05:30pm 15.5 W 4 5 1021.2 - 0.6 - Mostly cloudy 10 - - - -
03/05:00pm 15.4 WSW 5 6 1021.0 - 0.6 - Mostly clear 10 - - - -
03/04:42pm 15.9 SW 6 7 1020.7 - 0.6 - Mostly clear 10 - - - -
03/04:30pm 15.9 SW 7 9 1020.6 - 0.6 - Mostly clear 10 - - - -
03/04:17pm 15.9 SW 6 8 1020.7 - 0.6 - Mostly clear 10 - - - -
03/04:00pm 15.9 SW 7 9 1020.7 - 0.6 Drizzle Mostly clear 5 - - - -
03/03:30pm 16.9 WSW 7 11 1020.3 - 0.2 Drizzle Mostly cloudy 5 - - - -
03/03:20pm 16.3 SW 7 10 1020.2 - 0.0 Drizzle Mostly clear 6 - - - -
03/03:00pm 16.9 SW 8 12 1020.3 R 0.0 Distant precip. Mostly cloudy 30 - - - -
03/02:30pm 17.2 SW 11 13 1020.0 - 0.0 - Mostly clear 10 - - - -
03/02:00pm 18.4 W 7 10 1019.7 - 0.0 - Mostly clear 10 - - - -
03/01:30pm 18.0 W 10 13 1019.7 - 0.0 - Partly cloudy 10 - - - -

Other Formats:

Comma delimited format used in spreadsheet applications
http://www.bom.gov.au/fwo/IDW60701/IDW60701.94802.axf

JavaScript Object Notation format (JSON) in row-major order
http://www.bom.gov.au/fwo/IDW60701/IDW60701.94802.json